Terminal Aerodrome Forecast
Issued by NWS Cleveland, OH

Home | Current Version | Previous Version | Graphics & Text | Print | Product List | Glossary On
Versions: 1 2 3 4 5 6 7 8 9 10 11 12 13 14 15 16 17 18 19 20 21 22 23
280
FTUS41 KCLE 092340
TAFYNG
TAF
KYNG 092340Z 1000/1024 24006KT P6SM OVC050
     FM100100 24005KT 5SM -SHSN SCT015 OVC025
      TEMPO 1002/1006 1 1/2SM -SHSN SCT008 OVC015
     FM100600 27010KT P6SM VCSH OVC015
     FM101700 25012KT P6SM SCT015 OVC025=

USA.gov is the U.S. government's official web portal to all federal, state and local government web resources and services.